Mount Pisgah, Indiana
Current Conditions -  °F | °C
As of 11:14 AM on Sunday 25 Jan 2015 (Local Time) from KIRS Reporting Station
Light Snow Light Snow  
Wind Chill: 17°   Ceiling: 1600
Heat Index: 28°   Visibility: 2.5mi
Dew Point: 27°   Wind: 14mph
Humidity: 93%   Direction: 50°NE
Pressure: 29.79"   Gusts: NA
Location:  41.6561°N, 85.3683°W
Report Text: KIRS 251614Z AUTO 05012KT 2 1/2SM -SN SCT010 BKN016 OVC022 M02/M03 A2979 RMK AO2 VIS 2V3
Loading
Personal Weather Stations






























Interactive Weather Map New forecast layout! Learn more

10-Day Weather Forecast

Advertisements
Track Severe Weather on mobile